sensor_id;sensor_type;location;lat;lon;timestamp;P1;durP1;ratioP1;P2;durP2;ratioP2
11731;SDS011;5922;53.734;10.258;2023-05-20T00:01:34;2.23;;;1.50;;
11731;SDS011;5922;53.734;10.258;2023-05-20T00:04:01;3.73;;;1.63;;
11731;SDS011;5922;53.734;10.258;2023-05-20T00:06:30;3.43;;;1.30;;
11731;SDS011;5922;53.734;10.258;2023-05-20T00:09:00;3.57;;;1.63;;
11731;SDS011;5922;53.734;10.258;2023-05-20T00:11:27;1.80;;;1.70;;
11731;SDS011;5922;53.734;10.258;2023-05-20T00:13:56;3.33;;;1.40;;
11731;SDS011;5922;53.734;10.258;2023-05-20T00:16:23;1.93;;;1.67;;
11731;SDS011;5922;53.734;10.258;2023-05-20T00:18:50;3.77;;;1.63;;
11731;SDS011;5922;53.734;10.258;2023-05-20T00:21:18;3.83;;;1.97;;
11731;SDS011;5922;53.734;10.258;2023-05-20T00:23:47;2.33;;;1.70;;
11731;SDS011;5922;53.734;10.258;2023-05-20T00:26:14;1.83;;;1.20;;
11731;SDS011;5922;53.734;10.258;2023-05-20T00:28:45;3.57;;;1.60;;
11731;SDS011;5922;53.734;10.258;2023-05-20T00:31:12;2.77;;;1.57;;
11731;SDS011;5922;53.734;10.258;2023-05-20T00:33:40;3.80;;;1.90;;
11731;SDS011;5922;53.734;10.258;2023-05-20T00:36:07;2.40;;;1.50;;
11731;SDS011;5922;53.734;10.258;2023-05-20T00:38:34;1.50;;;1.40;;
11731;SDS011;5922;53.734;10.258;2023-05-20T00:41:03;3.13;;;1.87;;
11731;SDS011;5922;53.734;10.258;2023-05-20T00:43:33;2.10;;;1.43;;
11731;SDS011;5922;53.734;10.258;2023-05-20T00:46:01;2.33;;;1.70;;
11731;SDS011;5922;53.734;10.258;2023-05-20T00:48:31;1.87;;;1.40;;
11731;SDS011;5922;53.734;10.258;2023-05-20T00:51:02;4.13;;;1.70;;
11731;SDS011;5922;53.734;10.258;2023-05-20T00:53:31;3.07;;;1.90;;
11731;SDS011;5922;53.734;10.258;2023-05-20T00:56:00;2.27;;;1.50;;
11731;SDS011;5922;53.734;10.258;2023-05-20T00:58:31;2.40;;;1.70;;
11731;SDS011;5922;53.734;10.258;2023-05-20T01:01:03;1.70;;;1.60;;
11731;SDS011;5922;53.734;10.258;2023-05-20T01:03:30;2.90;;;1.83;;
11731;SDS011;5922;53.734;10.258;2023-05-20T01:05:57;2.57;;;1.70;;
11731;SDS011;5922;53.734;10.258;2023-05-20T01:08:28;5.20;;;1.67;;
11731;SDS011;5922;53.734;10.258;2023-05-20T01:10:56;3.43;;;1.40;;
11731;SDS011;5922;53.734;10.258;2023-05-20T01:13:26;3.93;;;1.80;;
11731;SDS011;5922;53.734;10.258;2023-05-20T01:15:57;2.30;;;1.50;;
11731;SDS011;5922;53.734;10.258;2023-05-20T01:18:25;2.30;;;1.50;;
11731;SDS011;5922;53.734;10.258;2023-05-20T01:20:54;3.83;;;1.50;;
11731;SDS011;5922;53.734;10.258;2023-05-20T01:23:31;2.77;;;1.70;;
11731;SDS011;5922;53.734;10.258;2023-05-20T01:26:06;4.07;;;1.80;;
11731;SDS011;5922;53.734;10.258;2023-05-20T01:28:34;4.07;;;1.70;;
11731;SDS011;5922;53.734;10.258;2023-05-20T01:31:03;5.03;;;1.60;;
11731;SDS011;5922;53.734;10.258;2023-05-20T01:33:31;7.00;;;1.83;;
11731;SDS011;5922;53.734;10.258;2023-05-20T01:36:04;2.67;;;1.40;;
11731;SDS011;5922;53.734;10.258;2023-05-20T01:38:33;3.87;;;1.47;;
11731;SDS011;5922;53.734;10.258;2023-05-20T01:41:02;4.17;;;1.53;;
11731;SDS011;5922;53.734;10.258;2023-05-20T01:43:30;3.23;;;1.43;;
11731;SDS011;5922;53.734;10.258;2023-05-20T01:45:58;4.73;;;1.50;;
11731;SDS011;5922;53.734;10.258;2023-05-20T01:48:26;4.00;;;1.63;;
11731;SDS011;5922;53.734;10.258;2023-05-20T01:50:54;2.43;;;1.80;;
11731;SDS011;5922;53.734;10.258;2023-05-20T01:53:21;3.33;;;1.50;;
11731;SDS011;5922;53.734;10.258;2023-05-20T01:55:50;3.97;;;1.87;;
11731;SDS011;5922;53.734;10.258;2023-05-20T01:58:17;2.80;;;1.50;;
11731;SDS011;5922;53.734;10.258;2023-05-20T02:00:45;3.90;;;1.57;;
11731;SDS011;5922;53.734;10.258;2023-05-20T02:03:12;4.60;;;1.23;;
11731;SDS011;5922;53.734;10.258;2023-05-20T02:05:44;5.27;;;1.60;;
11731;SDS011;5922;53.734;10.258;2023-05-20T02:08:14;3.53;;;1.80;;
11731;SDS011;5922;53.734;10.258;2023-05-20T02:10:41;2.90;;;1.70;;
11731;SDS011;5922;53.734;10.258;2023-05-20T02:13:10;3.60;;;1.50;;
11731;SDS011;5922;53.734;10.258;2023-05-20T02:15:39;1.93;;;1.40;;
11731;SDS011;5922;53.734;10.258;2023-05-20T02:18:14;2.03;;;1.60;;
11731;SDS011;5922;53.734;10.258;2023-05-20T02:20:42;2.33;;;1.50;;
11731;SDS011;5922;53.734;10.258;2023-05-20T02:23:09;2.10;;;1.40;;
11731;SDS011;5922;53.734;10.258;2023-05-20T02:25:39;3.30;;;1.60;;
11731;SDS011;5922;53.734;10.258;2023-05-20T02:28:08;2.10;;;1.50;;
11731;SDS011;5922;53.734;10.258;2023-05-20T02:30:37;1.67;;;1.40;;
11731;SDS011;5922;53.734;10.258;2023-05-20T02:33:08;3.50;;;1.30;;
11731;SDS011;5922;53.734;10.258;2023-05-20T02:35:36;2.23;;;1.53;;
11731;SDS011;5922;53.734;10.258;2023-05-20T02:38:03;3.97;;;1.60;;
11731;SDS011;5922;53.734;10.258;2023-05-20T02:40:31;1.53;;;1.30;;
11731;SDS011;5922;53.734;10.258;2023-05-20T02:42:58;1.97;;;1.37;;
11731;SDS011;5922;53.734;10.258;2023-05-20T02:45:26;2.90;;;1.70;;
11731;SDS011;5922;53.734;10.258;2023-05-20T02:47:55;3.03;;;1.53;;
11731;SDS011;5922;53.734;10.258;2023-05-20T02:50:22;5.90;;;1.73;;
11731;SDS011;5922;53.734;10.258;2023-05-20T02:52:50;2.80;;;1.50;;
11731;SDS011;5922;53.734;10.258;2023-05-20T02:55:19;2.90;;;1.50;;
11731;SDS011;5922;53.734;10.258;2023-05-20T02:57:47;3.43;;;1.60;;
11731;SDS011;5922;53.734;10.258;2023-05-20T03:00:15;2.50;;;1.40;;
11731;SDS011;5922;53.734;10.258;2023-05-20T03:02:42;4.27;;;1.70;;
11731;SDS011;5922;53.734;10.258;2023-05-20T03:05:11;2.93;;;1.90;;
11731;SDS011;5922;53.734;10.258;2023-05-20T03:07:41;4.70;;;1.60;;
11731;SDS011;5922;53.734;10.258;2023-05-20T03:10:12;4.70;;;1.93;;
11731;SDS011;5922;53.734;10.258;2023-05-20T03:12:40;1.93;;;1.30;;
11731;SDS011;5922;53.734;10.258;2023-05-20T03:15:07;2.50;;;1.80;;
11731;SDS011;5922;53.734;10.258;2023-05-20T03:17:35;3.23;;;1.60;;
11731;SDS011;5922;53.734;10.258;2023-05-20T03:20:02;4.20;;;1.60;;
11731;SDS011;5922;53.734;10.258;2023-05-20T03:22:32;3.47;;;1.77;;
11731;SDS011;5922;53.734;10.258;2023-05-20T03:25:00;7.13;;;2.03;;
11731;SDS011;5922;53.734;10.258;2023-05-20T03:27:28;5.23;;;1.70;;
11731;SDS011;5922;53.734;10.258;2023-05-20T03:29:56;3.07;;;1.60;;
11731;SDS011;5922;53.734;10.258;2023-05-20T03:32:24;2.03;;;1.47;;
11731;SDS011;5922;53.734;10.258;2023-05-20T03:34:51;3.37;;;1.70;;
11731;SDS011;5922;53.734;10.258;2023-05-20T03:37:19;1.60;;;1.50;;
11731;SDS011;5922;53.734;10.258;2023-05-20T03:39:50;2.43;;;1.43;;
11731;SDS011;5922;53.734;10.258;2023-05-20T03:42:18;5.63;;;1.70;;
11731;SDS011;5922;53.734;10.258;2023-05-20T03:44:45;3.00;;;1.60;;
11731;SDS011;5922;53.734;10.258;2023-05-20T03:47:12;4.00;;;1.40;;
11731;SDS011;5922;53.734;10.258;2023-05-20T03:49:39;3.70;;;1.60;;
11731;SDS011;5922;53.734;10.258;2023-05-20T03:52:07;3.40;;;1.50;;
11731;SDS011;5922;53.734;10.258;2023-05-20T03:54:36;3.70;;;1.57;;
11731;SDS011;5922;53.734;10.258;2023-05-20T03:57:07;3.03;;;1.60;;
11731;SDS011;5922;53.734;10.258;2023-05-20T03:59:35;6.17;;;1.80;;
11731;SDS011;5922;53.734;10.258;2023-05-20T04:02:04;3.27;;;1.67;;
11731;SDS011;5922;53.734;10.258;2023-05-20T04:04:31;3.93;;;1.87;;
11731;SDS011;5922;53.734;10.258;2023-05-20T04:06:58;2.67;;;1.70;;
11731;SDS011;5922;53.734;10.258;2023-05-20T04:09:28;5.27;;;1.57;;
11731;SDS011;5922;53.734;10.258;2023-05-20T04:11:56;3.93;;;1.70;;
11731;SDS011;5922;53.734;10.258;2023-05-20T04:14:27;2.27;;;1.33;;
11731;SDS011;5922;53.734;10.258;2023-05-20T04:16:55;2.87;;;1.67;;
11731;SDS011;5922;53.734;10.258;2023-05-20T04:19:23;3.33;;;1.50;;
11731;SDS011;5922;53.734;10.258;2023-05-20T04:21:52;2.43;;;1.53;;
11731;SDS011;5922;53.734;10.258;2023-05-20T04:24:20;5.10;;;1.53;;
11731;SDS011;5922;53.734;10.258;2023-05-20T04:26:52;3.77;;;1.63;;
11731;SDS011;5922;53.734;10.258;2023-05-20T04:29:35;6.83;;;1.93;;
11731;SDS011;5922;53.734;10.258;2023-05-20T04:32:05;3.30;;;1.60;;
11731;SDS011;5922;53.734;10.258;2023-05-20T04:34:34;3.47;;;1.60;;
11731;SDS011;5922;53.734;10.258;2023-05-20T04:37:06;3.63;;;1.60;;
11731;SDS011;5922;53.734;10.258;2023-05-20T04:39:34;3.47;;;1.77;;
11731;SDS011;5922;53.734;10.258;2023-05-20T04:44:49;2.57;;;1.70;;
11731;SDS011;5922;53.734;10.258;2023-05-20T04:47:25;4.03;;;1.80;;
11731;SDS011;5922;53.734;10.258;2023-05-20T04:50:01;2.07;;;1.43;;
11731;SDS011;5922;53.734;10.258;2023-05-20T04:52:34;3.73;;;1.57;;
11731;SDS011;5922;53.734;10.258;2023-05-20T04:55:10;7.87;;;1.97;;
11731;SDS011;5922;53.734;10.258;2023-05-20T04:57:41;4.20;;;1.67;;
11731;SDS011;5922;53.734;10.258;2023-05-20T05:00:17;4.83;;;1.90;;
11731;SDS011;5922;53.734;10.258;2023-05-20T05:02:47;4.33;;;1.80;;
11731;SDS011;5922;53.734;10.258;2023-05-20T05:05:17;2.53;;;1.50;;
11731;SDS011;5922;53.734;10.258;2023-05-20T05:07:44;4.63;;;1.97;;
11731;SDS011;5922;53.734;10.258;2023-05-20T05:10:13;3.23;;;1.60;;
11731;SDS011;5922;53.734;10.258;2023-05-20T05:12:51;2.37;;;1.57;;
11731;SDS011;5922;53.734;10.258;2023-05-20T05:15:20;4.13;;;1.67;;
11731;SDS011;5922;53.734;10.258;2023-05-20T05:17:47;2.30;;;1.80;;
11731;SDS011;5922;53.734;10.258;2023-05-20T05:20:17;4.27;;;1.97;;
11731;SDS011;5922;53.734;10.258;2023-05-20T05:22:48;5.07;;;1.80;;
11731;SDS011;5922;53.734;10.258;2023-05-20T05:25:18;5.57;;;1.90;;
11731;SDS011;5922;53.734;10.258;2023-05-20T05:27:45;5.37;;;2.27;;
11731;SDS011;5922;53.734;10.258;2023-05-20T05:30:14;8.00;;;2.57;;
11731;SDS011;5922;53.734;10.258;2023-05-20T05:32:44;3.33;;;1.73;;
11731;SDS011;5922;53.734;10.258;2023-05-20T05:35:12;5.73;;;1.90;;
11731;SDS011;5922;53.734;10.258;2023-05-20T05:37:39;5.50;;;2.10;;
11731;SDS011;5922;53.734;10.258;2023-05-20T05:40:07;3.43;;;1.77;;
11731;SDS011;5922;53.734;10.258;2023-05-20T05:42:37;4.53;;;1.87;;
11731;SDS011;5922;53.734;10.258;2023-05-20T05:45:07;7.37;;;2.87;;
11731;SDS011;5922;53.734;10.258;2023-05-20T05:47:35;5.57;;;2.00;;
11731;SDS011;5922;53.734;10.258;2023-05-20T05:50:05;6.40;;;1.80;;
11731;SDS011;5922;53.734;10.258;2023-05-20T05:52:37;7.33;;;2.30;;
11731;SDS011;5922;53.734;10.258;2023-05-20T05:55:09;3.73;;;1.53;;
11731;SDS011;5922;53.734;10.258;2023-05-20T05:57:36;4.10;;;1.63;;
11731;SDS011;5922;53.734;10.258;2023-05-20T06:00:09;4.30;;;2.03;;
11731;SDS011;5922;53.734;10.258;2023-05-20T06:02:37;3.33;;;1.80;;
11731;SDS011;5922;53.734;10.258;2023-05-20T06:05:10;3.53;;;1.80;;
11731;SDS011;5922;53.734;10.258;2023-05-20T06:07:45;4.83;;;1.83;;
11731;SDS011;5922;53.734;10.258;2023-05-20T06:10:26;3.77;;;1.63;;
11731;SDS011;5922;53.734;10.258;2023-05-20T06:12:56;3.77;;;1.70;;
11731;SDS011;5922;53.734;10.258;2023-05-20T06:15:29;4.63;;;2.00;;
11731;SDS011;5922;53.734;10.258;2023-05-20T06:17:56;5.53;;;1.80;;
11731;SDS011;5922;53.734;10.258;2023-05-20T06:20:34;3.33;;;1.80;;
11731;SDS011;5922;53.734;10.258;2023-05-20T06:23:05;3.40;;;1.80;;
11731;SDS011;5922;53.734;10.258;2023-05-20T06:25:35;3.97;;;1.97;;
11731;SDS011;5922;53.734;10.258;2023-05-20T06:28:04;5.27;;;2.00;;
11731;SDS011;5922;53.734;10.258;2023-05-20T06:30:36;4.73;;;1.70;;
11731;SDS011;5922;53.734;10.258;2023-05-20T06:33:04;3.23;;;2.00;;
11731;SDS011;5922;53.734;10.258;2023-05-20T06:35:37;5.87;;;1.80;;
11731;SDS011;5922;53.734;10.258;2023-05-20T06:38:05;5.03;;;2.00;;
11731;SDS011;5922;53.734;10.258;2023-05-20T06:40:37;6.17;;;1.70;;
11731;SDS011;5922;53.734;10.258;2023-05-20T06:43:08;5.90;;;2.10;;
11731;SDS011;5922;53.734;10.258;2023-05-20T06:45:35;4.33;;;2.07;;
11731;SDS011;5922;53.734;10.258;2023-05-20T06:48:02;5.53;;;1.90;;
11731;SDS011;5922;53.734;10.258;2023-05-20T06:50:30;6.73;;;2.07;;
11731;SDS011;5922;53.734;10.258;2023-05-20T06:52:58;3.00;;;1.80;;
11731;SDS011;5922;53.734;10.258;2023-05-20T06:55:28;4.47;;;2.17;;
11731;SDS011;5922;53.734;10.258;2023-05-20T06:58:09;2.80;;;1.80;;
11731;SDS011;5922;53.734;10.258;2023-05-20T07:00:37;3.80;;;2.00;;
11731;SDS011;5922;53.734;10.258;2023-05-20T07:03:12;6.33;;;1.97;;
11731;SDS011;5922;53.734;10.258;2023-05-20T07:05:39;5.00;;;1.73;;
11731;SDS011;5922;53.734;10.258;2023-05-20T07:08:09;4.03;;;2.07;;
11731;SDS011;5922;53.734;10.258;2023-05-20T07:10:39;4.77;;;2.37;;
11731;SDS011;5922;53.734;10.258;2023-05-20T07:13:10;8.33;;;2.30;;
11731;SDS011;5922;53.734;10.258;2023-05-20T07:15:40;3.00;;;2.10;;
11731;SDS011;5922;53.734;10.258;2023-05-20T07:18:07;4.43;;;2.23;;
11731;SDS011;5922;53.734;10.258;2023-05-20T07:20:43;4.80;;;2.10;;
11731;SDS011;5922;53.734;10.258;2023-05-20T07:23:16;3.97;;;2.10;;
11731;SDS011;5922;53.734;10.258;2023-05-20T07:25:43;3.20;;;1.90;;
11731;SDS011;5922;53.734;10.258;2023-05-20T07:28:14;3.03;;;2.27;;
11731;SDS011;5922;53.734;10.258;2023-05-20T07:30:41;4.30;;;2.30;;
11731;SDS011;5922;53.734;10.258;2023-05-20T07:33:16;6.17;;;2.00;;
11731;SDS011;5922;53.734;10.258;2023-05-20T07:35:47;3.40;;;2.40;;
11731;SDS011;5922;53.734;10.258;2023-05-20T07:38:17;7.37;;;2.43;;
11731;SDS011;5922;53.734;10.258;2023-05-20T07:40:45;5.60;;;2.50;;
11731;SDS011;5922;53.734;10.258;2023-05-20T07:43:13;4.13;;;2.10;;
11731;SDS011;5922;53.734;10.258;2023-05-20T07:45:41;3.47;;;2.53;;
11731;SDS011;5922;53.734;10.258;2023-05-20T07:48:09;3.13;;;2.30;;
11731;SDS011;5922;53.734;10.258;2023-05-20T07:50:37;4.83;;;2.60;;
11731;SDS011;5922;53.734;10.258;2023-05-20T07:53:04;6.57;;;2.17;;
11731;SDS011;5922;53.734;10.258;2023-05-20T07:55:37;5.80;;;1.90;;
11731;SDS011;5922;53.734;10.258;2023-05-20T07:58:05;5.60;;;2.20;;
11731;SDS011;5922;53.734;10.258;2023-05-20T08:00:45;5.53;;;2.33;;
11731;SDS011;5922;53.734;10.258;2023-05-20T08:03:15;3.67;;;2.43;;
11731;SDS011;5922;53.734;10.258;2023-05-20T08:05:48;4.63;;;2.43;;
11731;SDS011;5922;53.734;10.258;2023-05-20T08:08:17;3.80;;;2.23;;
11731;SDS011;5922;53.734;10.258;2023-05-20T08:10:49;5.37;;;2.17;;
11731;SDS011;5922;53.734;10.258;2023-05-20T08:13:19;4.87;;;2.30;;
11731;SDS011;5922;53.734;10.258;2023-05-20T08:15:46;4.60;;;2.47;;
11731;SDS011;5922;53.734;10.258;2023-05-20T08:18:16;2.80;;;2.30;;
11731;SDS011;5922;53.734;10.258;2023-05-20T08:20:56;3.50;;;2.17;;
11731;SDS011;5922;53.734;10.258;2023-05-20T08:23:24;4.10;;;2.27;;
11731;SDS011;5922;53.734;10.258;2023-05-20T08:26:00;5.90;;;2.30;;
11731;SDS011;5922;53.734;10.258;2023-05-20T08:28:53;2.30;;;2.00;;
11731;SDS011;5922;53.734;10.258;2023-05-20T08:31:20;4.23;;;2.07;;
11731;SDS011;5922;53.734;10.258;2023-05-20T08:33:50;4.27;;;2.03;;
11731;SDS011;5922;53.734;10.258;2023-05-20T08:36:17;4.27;;;2.37;;
11731;SDS011;5922;53.734;10.258;2023-05-20T08:41:56;3.47;;;1.97;;
11731;SDS011;5922;53.734;10.258;2023-05-20T08:44:33;3.50;;;2.00;;
11731;SDS011;5922;53.734;10.258;2023-05-20T08:47:10;3.23;;;1.90;;
11731;SDS011;5922;53.734;10.258;2023-05-20T08:49:38;2.47;;;1.80;;
11731;SDS011;5922;53.734;10.258;2023-05-20T08:52:05;3.73;;;1.90;;
11731;SDS011;5922;53.734;10.258;2023-05-20T08:54:49;4.43;;;2.00;;
11731;SDS011;5922;53.734;10.258;2023-05-20T08:57:19;2.77;;;2.00;;
11731;SDS011;5922;53.734;10.258;2023-05-20T08:59:49;2.63;;;1.83;;
11731;SDS011;5922;53.734;10.258;2023-05-20T09:02:17;3.10;;;2.23;;
11731;SDS011;5922;53.734;10.258;2023-05-20T09:04:45;3.53;;;2.00;;
11731;SDS011;5922;53.734;10.258;2023-05-20T09:07:12;3.97;;;2.10;;
11731;SDS011;5922;53.734;10.258;2023-05-20T09:09:40;4.20;;;2.30;;
11731;SDS011;5922;53.734;10.258;2023-05-20T09:12:07;4.03;;;1.60;;
11731;SDS011;5922;53.734;10.258;2023-05-20T09:14:36;3.20;;;1.83;;
11731;SDS011;5922;53.734;10.258;2023-05-20T09:17:04;3.33;;;2.00;;
11731;SDS011;5922;53.734;10.258;2023-05-20T09:19:52;3.67;;;1.93;;
11731;SDS011;5922;53.734;10.258;2023-05-20T09:22:22;2.30;;;1.80;;
11731;SDS011;5922;53.734;10.258;2023-05-20T09:24:53;3.40;;;1.90;;
11731;SDS011;5922;53.734;10.258;2023-05-20T09:27:23;4.50;;;1.73;;
11731;SDS011;5922;53.734;10.258;2023-05-20T09:29:51;4.70;;;2.30;;
11731;SDS011;5922;53.734;10.258;2023-05-20T09:32:21;2.93;;;2.33;;
11731;SDS011;5922;53.734;10.258;2023-05-20T09:34:52;3.30;;;2.07;;
11731;SDS011;5922;53.734;10.258;2023-05-20T09:37:20;5.13;;;2.30;;
11731;SDS011;5922;53.734;10.258;2023-05-20T09:39:49;2.63;;;2.30;;
11731;SDS011;5922;53.734;10.258;2023-05-20T09:42:20;3.07;;;1.83;;
11731;SDS011;5922;53.734;10.258;2023-05-20T09:44:51;3.83;;;2.20;;
11731;SDS011;5922;53.734;10.258;2023-05-20T09:47:19;2.67;;;2.03;;
11731;SDS011;5922;53.734;10.258;2023-05-20T09:49:46;2.77;;;2.00;;
11731;SDS011;5922;53.734;10.258;2023-05-20T09:55:05;4.07;;;1.80;;
11731;SDS011;5922;53.734;10.258;2023-05-20T09:57:34;2.17;;;1.80;;
11731;SDS011;5922;53.734;10.258;2023-05-20T10:00:04;3.07;;;1.83;;
11731;SDS011;5922;53.734;10.258;2023-05-20T10:02:32;4.37;;;2.10;;
11731;SDS011;5922;53.734;10.258;2023-05-20T10:05:00;3.80;;;2.00;;
11731;SDS011;5922;53.734;10.258;2023-05-20T10:10:26;7.43;;;2.27;;
11731;SDS011;5922;53.734;10.258;2023-05-20T10:12:59;4.17;;;2.30;;
11731;SDS011;5922;53.734;10.258;2023-05-20T10:15:33;5.03;;;2.13;;
11731;SDS011;5922;53.734;10.258;2023-05-20T10:18:05;12.07;;;2.53;;
11731;SDS011;5922;53.734;10.258;2023-05-20T10:20:43;7.67;;;2.20;;
11731;SDS011;5922;53.734;10.258;2023-05-20T10:23:18;4.50;;;2.40;;
11731;SDS011;5922;53.734;10.258;2023-05-20T10:25:49;6.27;;;2.53;;
11731;SDS011;5922;53.734;10.258;2023-05-20T10:28:23;2.80;;;1.90;;
11731;SDS011;5922;53.734;10.258;2023-05-20T10:30:52;4.27;;;2.30;;
11731;SDS011;5922;53.734;10.258;2023-05-20T10:33:19;4.73;;;2.03;;
11731;SDS011;5922;53.734;10.258;2023-05-20T10:35:49;5.00;;;2.30;;
11731;SDS011;5922;53.734;10.258;2023-05-20T10:38:17;4.40;;;2.37;;
11731;SDS011;5922;53.734;10.258;2023-05-20T10:40:45;3.90;;;2.20;;
11731;SDS011;5922;53.734;10.258;2023-05-20T10:43:13;3.93;;;2.10;;
11731;SDS011;5922;53.734;10.258;2023-05-20T10:45:47;4.87;;;2.10;;
11731;SDS011;5922;53.734;10.258;2023-05-20T10:48:30;2.90;;;2.07;;
11731;SDS011;5922;53.734;10.258;2023-05-20T10:50:58;3.07;;;2.20;;
11731;SDS011;5922;53.734;10.258;2023-05-20T10:53:28;2.77;;;2.30;;
11731;SDS011;5922;53.734;10.258;2023-05-20T10:55:56;5.63;;;2.17;;
11731;SDS011;5922;53.734;10.258;2023-05-20T10:58:23;5.83;;;2.30;;
11731;SDS011;5922;53.734;10.258;2023-05-20T11:00:51;2.87;;;2.10;;
11731;SDS011;5922;53.734;10.258;2023-05-20T11:03:20;2.60;;;2.17;;
11731;SDS011;5922;53.734;10.258;2023-05-20T11:05:51;2.97;;;2.10;;
11731;SDS011;5922;53.734;10.258;2023-05-20T11:08:18;5.63;;;2.20;;
11731;SDS011;5922;53.734;10.258;2023-05-20T11:10:46;4.53;;;2.30;;
11731;SDS011;5922;53.734;10.258;2023-05-20T11:13:13;4.07;;;2.20;;
11731;SDS011;5922;53.734;10.258;2023-05-20T11:15:41;3.57;;;2.40;;
11731;SDS011;5922;53.734;10.258;2023-05-20T11:18:11;2.17;;;1.90;;
11731;SDS011;5922;53.734;10.258;2023-05-20T11:20:48;2.27;;;1.93;;
11731;SDS011;5922;53.734;10.258;2023-05-20T11:23:18;3.67;;;2.00;;
11731;SDS011;5922;53.734;10.258;2023-05-20T11:25:48;5.00;;;2.20;;
11731;SDS011;5922;53.734;10.258;2023-05-20T11:28:15;2.23;;;1.80;;
11731;SDS011;5922;53.734;10.258;2023-05-20T11:30:42;4.57;;;2.07;;
11731;SDS011;5922;53.734;10.258;2023-05-20T11:33:10;2.97;;;2.13;;
11731;SDS011;5922;53.734;10.258;2023-05-20T11:35:43;3.33;;;2.30;;
11731;SDS011;5922;53.734;10.258;2023-05-20T11:38:10;3.17;;;2.40;;
11731;SDS011;5922;53.734;10.258;2023-05-20T11:40:41;7.50;;;2.33;;
11731;SDS011;5922;53.734;10.258;2023-05-20T11:43:10;5.43;;;2.50;;
11731;SDS011;5922;53.734;10.258;2023-05-20T11:45:38;3.63;;;2.53;;
11731;SDS011;5922;53.734;10.258;2023-05-20T11:48:15;5.33;;;2.53;;
11731;SDS011;5922;53.734;10.258;2023-05-20T11:50:56;2.20;;;2.00;;
11731;SDS011;5922;53.734;10.258;2023-05-20T11:53:23;3.30;;;2.30;;
11731;SDS011;5922;53.734;10.258;2023-05-20T11:55:58;3.07;;;2.17;;
11731;SDS011;5922;53.734;10.258;2023-05-20T11:58:26;5.70;;;2.70;;
11731;SDS011;5922;53.734;10.258;2023-05-20T12:00:55;3.73;;;2.20;;
11731;SDS011;5922;53.734;10.258;2023-05-20T12:03:23;3.90;;;2.30;;
11731;SDS011;5922;53.734;10.258;2023-05-20T12:05:50;4.27;;;2.57;;
11731;SDS011;5922;53.734;10.258;2023-05-20T12:08:18;3.27;;;2.33;;
11731;SDS011;5922;53.734;10.258;2023-05-20T12:10:46;8.87;;;2.60;;
11731;SDS011;5922;53.734;10.258;2023-05-20T12:13:15;4.73;;;2.67;;
11731;SDS011;5922;53.734;10.258;2023-05-20T12:15:43;4.60;;;2.30;;
11731;SDS011;5922;53.734;10.258;2023-05-20T12:18:10;4.97;;;2.73;;
11731;SDS011;5922;53.734;10.258;2023-05-20T12:20:38;3.90;;;2.60;;
11731;SDS011;5922;53.734;10.258;2023-05-20T12:23:05;3.23;;;2.50;;
11731;SDS011;5922;53.734;10.258;2023-05-20T12:25:33;5.37;;;2.80;;
11731;SDS011;5922;53.734;10.258;2023-05-20T12:28:00;6.67;;;2.47;;
11731;SDS011;5922;53.734;10.258;2023-05-20T12:30:29;5.43;;;2.67;;
11731;SDS011;5922;53.734;10.258;2023-05-20T12:32:56;5.23;;;3.10;;
11731;SDS011;5922;53.734;10.258;2023-05-20T12:35:24;5.23;;;2.80;;
11731;SDS011;5922;53.734;10.258;2023-05-20T12:37:52;3.07;;;2.33;;
11731;SDS011;5922;53.734;10.258;2023-05-20T12:40:20;6.63;;;2.97;;
11731;SDS011;5922;53.734;10.258;2023-05-20T12:42:48;4.50;;;2.47;;
11731;SDS011;5922;53.734;10.258;2023-05-20T12:45:15;2.53;;;2.10;;
11731;SDS011;5922;53.734;10.258;2023-05-20T12:47:44;4.83;;;2.43;;
11731;SDS011;5922;53.734;10.258;2023-05-20T12:50:12;7.20;;;2.90;;
11731;SDS011;5922;53.734;10.258;2023-05-20T12:52:39;4.50;;;2.40;;
11731;SDS011;5922;53.734;10.258;2023-05-20T12:55:07;4.13;;;2.50;;
11731;SDS011;5922;53.734;10.258;2023-05-20T12:57:38;5.07;;;2.67;;
11731;SDS011;5922;53.734;10.258;2023-05-20T13:00:05;3.70;;;2.33;;
11731;SDS011;5922;53.734;10.258;2023-05-20T13:02:34;3.87;;;2.20;;
11731;SDS011;5922;53.734;10.258;2023-05-20T13:05:02;4.20;;;2.40;;
11731;SDS011;5922;53.734;10.258;2023-05-20T13:07:30;4.03;;;2.53;;
11731;SDS011;5922;53.734;10.258;2023-05-20T13:09:57;6.00;;;2.53;;
11731;SDS011;5922;53.734;10.258;2023-05-20T13:12:25;6.27;;;2.60;;
11731;SDS011;5922;53.734;10.258;2023-05-20T13:14:52;5.13;;;2.60;;
11731;SDS011;5922;53.734;10.258;2023-05-20T13:17:19;6.37;;;2.93;;
11731;SDS011;5922;53.734;10.258;2023-05-20T13:19:46;6.13;;;3.13;;
11731;SDS011;5922;53.734;10.258;2023-05-20T13:22:15;4.10;;;2.60;;
11731;SDS011;5922;53.734;10.258;2023-05-20T13:24:43;3.97;;;2.33;;
11731;SDS011;5922;53.734;10.258;2023-05-20T13:27:10;4.53;;;2.50;;
11731;SDS011;5922;53.734;10.258;2023-05-20T13:29:37;6.10;;;2.70;;
11731;SDS011;5922;53.734;10.258;2023-05-20T13:32:06;3.67;;;2.40;;
11731;SDS011;5922;53.734;10.258;2023-05-20T13:34:33;3.20;;;2.23;;
11731;SDS011;5922;53.734;10.258;2023-05-20T13:37:01;2.63;;;2.30;;
11731;SDS011;5922;53.734;10.258;2023-05-20T13:39:30;4.90;;;2.50;;
11731;SDS011;5922;53.734;10.258;2023-05-20T13:41:57;3.60;;;2.20;;
11731;SDS011;5922;53.734;10.258;2023-05-20T13:44:24;9.43;;;3.10;;
11731;SDS011;5922;53.734;10.258;2023-05-20T13:46:52;4.13;;;1.80;;
11731;SDS011;5922;53.734;10.258;2023-05-20T13:49:19;3.93;;;2.50;;
11731;SDS011;5922;53.734;10.258;2023-05-20T13:51:46;3.23;;;2.40;;
11731;SDS011;5922;53.734;10.258;2023-05-20T13:54:14;5.47;;;2.50;;
11731;SDS011;5922;53.734;10.258;2023-05-20T13:56:42;7.77;;;3.03;;
11731;SDS011;5922;53.734;10.258;2023-05-20T13:59:10;5.13;;;2.70;;
11731;SDS011;5922;53.734;10.258;2023-05-20T14:01:37;5.43;;;2.20;;
11731;SDS011;5922;53.734;10.258;2023-05-20T14:04:08;3.70;;;2.20;;
11731;SDS011;5922;53.734;10.258;2023-05-20T14:06:36;4.93;;;2.47;;
11731;SDS011;5922;53.734;10.258;2023-05-20T14:09:04;4.23;;;2.23;;
11731;SDS011;5922;53.734;10.258;2023-05-20T14:11:32;5.33;;;3.03;;
11731;SDS011;5922;53.734;10.258;2023-05-20T14:14:01;7.10;;;2.77;;
11731;SDS011;5922;53.734;10.258;2023-05-20T14:16:28;5.17;;;2.80;;
11731;SDS011;5922;53.734;10.258;2023-05-20T14:18:55;6.60;;;2.57;;
11731;SDS011;5922;53.734;10.258;2023-05-20T14:21:23;3.67;;;2.30;;
11731;SDS011;5922;53.734;10.258;2023-05-20T14:23:50;5.73;;;2.43;;
11731;SDS011;5922;53.734;10.258;2023-05-20T14:26:17;2.80;;;2.07;;
11731;SDS011;5922;53.734;10.258;2023-05-20T14:28:45;4.63;;;2.50;;
11731;SDS011;5922;53.734;10.258;2023-05-20T14:31:14;6.67;;;2.43;;
11731;SDS011;5922;53.734;10.258;2023-05-20T14:33:41;5.87;;;2.60;;
11731;SDS011;5922;53.734;10.258;2023-05-20T14:36:09;4.80;;;2.40;;
11731;SDS011;5922;53.734;10.258;2023-05-20T14:38:36;3.33;;;2.37;;
11731;SDS011;5922;53.734;10.258;2023-05-20T14:41:03;5.13;;;2.20;;
11731;SDS011;5922;53.734;10.258;2023-05-20T14:43:31;4.37;;;2.60;;
11731;SDS011;5922;53.734;10.258;2023-05-20T14:45:58;6.53;;;2.63;;
11731;SDS011;5922;53.734;10.258;2023-05-20T14:48:27;3.50;;;2.27;;
11731;SDS011;5922;53.734;10.258;2023-05-20T14:50:54;6.03;;;2.43;;
11731;SDS011;5922;53.734;10.258;2023-05-20T14:53:22;4.37;;;2.40;;
11731;SDS011;5922;53.734;10.258;2023-05-20T14:55:49;3.03;;;2.10;;
11731;SDS011;5922;53.734;10.258;2023-05-20T14:58:33;3.40;;;2.47;;
11731;SDS011;5922;53.734;10.258;2023-05-20T15:01:25;4.17;;;2.43;;
11731;SDS011;5922;53.734;10.258;2023-05-20T15:04:23;4.60;;;2.10;;
11731;SDS011;5922;53.734;10.258;2023-05-20T15:07:30;5.73;;;2.37;;
11731;SDS011;5922;53.734;10.258;2023-05-20T15:15:52;4.03;;;2.20;;
11731;SDS011;5922;53.734;10.258;2023-05-20T15:18:20;5.37;;;2.53;;
11731;SDS011;5922;53.734;10.258;2023-05-20T15:21:11;3.80;;;2.60;;